Time;durP1;ratioP1;P1;durP2;ratioP2;P2;SDS_P1;SDS_P2;PMS_P1;PMS_P2;Temp;Humidity;BMP_temperature;BMP_pressure;BME280_temperature;BME280_humidity;BME280_pressure;Samples;Min_cycle;Max_cycle;Signal;HPM_P1;HPM_P2
2021/04/23 00:01:07;;;;;;;5.10;3.35;;;1.80;97.50;;;;;;5074521;28;20191;-63
2021/04/23 00:03:43;;;;;;;3.80;3.40;;;1.90;97.90;;;;;;5074708;28;20221;-62
2021/04/23 00:06:29;;;;;;;3.07;2.80;;;1.90;97.80;;;;;;5075431;28;20401;-62
2021/04/23 00:09:12;;;;;;;4.35;3.17;;;1.80;97.70;;;;;;5075599;28;20396;-62
2021/04/23 00:11:46;;;;;;;7.40;3.80;;;1.80;97.80;;;;;;5075328;28;20239;-63
2021/04/23 00:14:16;;;;;;;5.83;3.33;;;1.80;98.10;;;;;;5076791;28;20401;-64
2021/04/23 00:16:42;;;;;;;6.30;3.27;;;1.70;98.10;;;;;;5078074;28;20446;-63
2021/04/23 00:19:15;;;;;;;4.70;3.10;;;1.70;98.20;;;;;;5077202;28;20415;-63
2021/04/23 00:21:42;;;;;;;5.17;2.97;;;1.70;98.10;;;;;;5077626;28;20218;-63
2021/04/23 00:24:09;;;;;;;4.55;4.15;;;1.70;97.60;;;;;;5077573;28;20419;-63
2021/04/23 00:26:35;;;;;;;7.30;2.97;;;1.60;97.60;;;;;;5078102;28;20638;-63
2021/04/23 00:29:01;;;;;;;5.03;3.07;;;1.60;97.70;;;;;;5077011;28;20470;-64
2021/04/23 00:31:26;;;;;;;7.30;3.33;;;1.60;97.60;;;;;;5077485;28;20453;-62
2021/04/23 00:33:52;;;;;;;3.50;3.13;;;1.60;97.40;;;;;;5077428;28;20429;-63
2021/04/23 00:36:18;;;;;;;4.67;3.63;;;1.50;97.30;;;;;;5077730;28;20177;-63
2021/04/23 00:38:45;;;;;;;7.80;3.50;;;1.50;97.30;;;;;;5076648;28;20410;-63
2021/04/23 00:41:18;;;;;;;3.23;2.90;;;1.60;97.50;;;;;;5077163;28;20437;-63
2021/04/23 00:43:46;;;;;;;4.40;3.30;;;1.50;97.50;;;;;;5081539;28;20522;-62
2021/04/23 00:46:13;;;;;;;6.60;3.45;;;1.50;97.30;;;;;;5081998;28;20165;-63
2021/04/23 00:48:45;;;;;;;3.97;3.22;;;1.50;97.30;;;;;;5080409;28;20177;-63
2021/04/23 00:51:14;;;;;;;3.83;3.53;;;1.40;97.40;;;;;;5081543;28;20684;-63
2021/04/23 00:53:44;;;;;;;5.82;2.67;;;1.30;97.40;;;;;;5081297;28;20469;-62
2021/04/23 00:56:17;;;;;;;6.05;3.33;;;1.20;97.40;;;;;;5081213;28;20275;-63
2021/04/23 00:58:43;;;;;;;7.22;4.47;;;1.30;97.50;;;;;;5079856;28;20251;-62
2021/04/23 01:01:12;;;;;;;6.82;3.20;;;1.20;97.70;;;;;;5079288;28;20185;-62
2021/04/23 01:03:39;;;;;;;3.13;2.53;;;1.20;97.70;;;;;;5079753;28;20200;-62
2021/04/23 01:06:10;;;;;;;4.15;3.13;;;1.20;97.80;;;;;;5079427;28;20207;-62
2021/04/23 01:08:35;;;;;;;3.38;3.08;;;1.20;97.50;;;;;;5080201;28;20195;-62
2021/04/23 01:11:03;;;;;;;5.63;2.90;;;1.10;97.40;;;;;;5079465;28;20185;-62
2021/04/23 01:13:32;;;;;;;4.13;2.83;;;1.10;97.30;;;;;;5079104;28;20175;-62
2021/04/23 01:16:14;;;;;;;3.03;2.75;;;1.20;97.60;;;;;;5080374;28;20179;-62
2021/04/23 01:18:40;;;;;;;2.83;2.50;;;1.10;97.60;;;;;;5079765;28;20160;-62
2021/04/23 01:21:12;;;;;;;3.63;2.70;;;1.00;97.50;;;;;;5080598;28;20192;-62
2021/04/23 01:23:39;;;;;;;2.90;2.60;;;0.90;97.50;;;;;;5080124;28;20201;-62
2021/04/23 01:26:07;;;;;;;4.78;3.33;;;0.90;97.50;;;;;;5079960;28;20199;-62
2021/04/23 01:28:34;;;;;;;9.05;3.03;;;0.90;97.70;;;;;;5079348;28;20528;-62
2021/04/23 01:31:02;;;;;;;4.60;4.20;;;0.90;97.70;;;;;;5080075;28;20541;-62
2021/04/23 01:33:28;;;;;;;2.97;2.67;;;0.90;97.70;;;;;;5079416;28;20179;-61
2021/04/23 01:35:55;;;;;;;3.38;2.95;;;0.80;97.70;;;;;;5080849;28;20171;-62
2021/04/23 01:38:21;;;;;;;5.95;3.67;;;0.80;97.70;;;;;;5080010;28;20306;-63
2021/04/23 01:40:47;;;;;;;5.20;3.03;;;0.80;97.80;;;;;;5079651;28;20194;-62
2021/04/23 01:43:14;;;;;;;4.57;3.30;;;0.80;97.80;;;;;;5080611;28;20196;-62
2021/04/23 01:45:40;;;;;;;8.90;4.53;;;0.70;97.60;;;;;;5080323;28;20468;-62
2021/04/23 01:48:06;;;;;;;5.30;3.40;;;0.60;97.80;;;;;;5079931;28;20646;-61
2021/04/23 01:50:33;;;;;;;7.32;3.17;;;0.60;98.20;;;;;;5080281;28;20195;-62
2021/04/23 01:52:58;;;;;;;4.68;3.20;;;0.70;98.20;;;;;;5080683;28;20237;-62
2021/04/23 01:55:25;;;;;;;3.07;2.77;;;0.60;98.10;;;;;;5080131;28;20250;-62
2021/04/23 01:57:51;;;;;;;5.38;2.92;;;0.60;98.10;;;;;;5080165;28;20164;-63
2021/04/23 02:00:22;;;;;;;4.17;3.70;;;0.60;97.80;;;;;;5080189;28;20570;-62
2021/04/23 02:02:51;;;;;;;3.10;2.65;;;0.60;97.60;;;;;;5080613;28;20449;-62
2021/04/23 02:05:17;;;;;;;10.60;4.00;;;0.60;97.80;;;;;;5080016;28;20179;-62
2021/04/23 02:07:42;;;;;;;5.20;3.10;;;0.50;97.60;;;;;;5080173;28;20167;-61
2021/04/23 02:10:15;;;;;;;7.43;3.27;;;0.50;97.80;;;;;;5079707;28;20187;-62
2021/04/23 02:12:42;;;;;;;3.38;3.08;;;0.50;98.10;;;;;;5079734;28;20176;-62
2021/04/23 02:15:11;;;;;;;4.47;2.65;;;0.40;98.00;;;;;;5080181;28;20172;-62
2021/04/23 02:17:37;;;;;;;6.18;3.38;;;0.40;98.00;;;;;;5079580;28;20183;-61
2021/04/23 02:20:08;;;;;;;4.53;2.83;;;0.30;97.80;;;;;;5079918;28;20232;-62
2021/04/23 02:22:34;;;;;;;4.40;3.15;;;0.30;97.80;;;;;;5079767;28;20203;-62
2021/04/23 02:24:59;;;;;;;6.10;3.77;;;0.20;97.80;;;;;;5079678;28;20175;-62
2021/04/23 02:27:26;;;;;;;5.00;3.73;;;0.20;98.00;;;;;;5079101;28;20160;-62
2021/04/23 02:29:51;;;;;;;6.03;3.13;;;0.30;97.90;;;;;;5079263;28;20206;-62
2021/04/23 02:32:17;;;;;;;5.57;3.37;;;0.30;97.80;;;;;;5079523;28;20178;-62
2021/04/23 02:34:43;;;;;;;4.50;3.40;;;0.20;97.70;;;;;;5079612;28;20262;-62
2021/04/23 02:37:08;;;;;;;6.23;3.00;;;0.20;97.90;;;;;;5079686;28;20424;-62
2021/04/23 02:39:34;;;;;;;3.40;2.60;;;0.20;97.90;;;;;;5079010;28;20198;-62
2021/04/23 02:41:59;;;;;;;5.47;2.90;;;0.10;97.90;;;;;;5079332;28;20175;-61
2021/04/23 02:44:26;;;;;;;3.03;2.83;;;0.20;98.00;;;;;;5079337;28;20171;-62
2021/04/23 02:46:52;;;;;;;3.00;2.78;;;0.20;98.00;;;;;;5078811;28;20195;-62
2021/04/23 02:49:18;;;;;;;2.95;2.58;;;0.20;97.80;;;;;;5078574;28;20164;-62
2021/04/23 02:51:46;;;;;;;2.50;2.30;;;0.10;97.50;;;;;;5079725;28;20163;-61
2021/04/23 02:54:13;;;;;;;5.20;3.10;;;0.10;97.50;;;;;;5079022;28;20190;-62
2021/04/23 02:56:40;;;;;;;11.52;3.30;;;0.10;97.60;;;;;;5078816;28;20245;-62
2021/04/23 02:59:07;;;;;;;3.05;2.17;;;0.00;97.60;;;;;;5078090;28;20301;-62
2021/04/23 03:01:47;;;;;;;3.28;2.88;;;0.00;97.80;;;;;;5078790;28;20270;-61
2021/04/23 03:04:12;;;;;;;5.88;3.50;;;0.00;97.60;;;;;;5078247;28;20169;-62
2021/04/23 03:06:38;;;;;;;3.77;3.37;;;0.00;97.50;;;;;;5077797;28;20167;-62
2021/04/23 03:09:06;;;;;;;3.63;3.37;;;0.00;97.50;;;;;;5077894;28;20256;-62
2021/04/23 03:11:33;;;;;;;3.53;3.22;;;-0.10;97.40;;;;;;5078252;28;20206;-62
2021/04/23 03:14:00;;;;;;;5.13;4.28;;;-0.10;97.50;;;;;;5074951;28;20159;-61
2021/04/23 03:16:28;;;;;;;7.90;4.55;;;-0.10;97.70;;;;;;5073060;28;20224;-59
2021/04/23 03:18:55;;;;;;;3.58;2.50;;;-0.10;97.70;;;;;;5072521;28;20254;-57
2021/04/23 03:21:24;;;;;;;8.93;3.63;;;-0.20;97.80;;;;;;5072854;28;20191;-58
2021/04/23 03:23:50;;;;;;;5.28;3.58;;;-0.20;97.60;;;;;;5072578;28;20202;-61
2021/04/23 03:26:17;;;;;;;4.23;3.27;;;-0.20;97.70;;;;;;5072807;28;20215;-61
2021/04/23 03:28:43;;;;;;;4.93;3.50;;;-0.30;97.60;;;;;;5072336;28;20393;-59
2021/04/23 03:31:10;;;;;;;4.77;3.23;;;-0.30;97.80;;;;;;5072513;28;20237;-59
2021/04/23 03:33:36;;;;;;;6.63;3.42;;;-0.20;97.80;;;;;;5072489;28;20409;-59
2021/04/23 03:36:05;;;;;;;2.93;2.67;;;-0.20;97.80;;;;;;5072601;28;20174;-61
2021/04/23 03:38:33;;;;;;;5.32;3.15;;;-0.20;97.80;;;;;;5072056;28;20186;-59
2021/04/23 03:41:00;;;;;;;6.38;3.35;;;-0.20;97.50;;;;;;5072484;28;20189;-58
2021/04/23 03:43:26;;;;;;;3.60;3.25;;;-0.40;97.20;;;;;;5072373;28;20220;-58
2021/04/23 03:45:53;;;;;;;5.63;3.30;;;-0.40;97.30;;;;;;5072424;28;20174;-61
2021/04/23 03:48:19;;;;;;;3.47;3.15;;;-0.40;97.60;;;;;;5072229;28;20537;-58
2021/04/23 03:50:45;;;;;;;4.50;3.60;;;-0.50;97.80;;;;;;5072179;28;20183;-59
2021/04/23 03:53:13;;;;;;;5.35;3.53;;;-0.50;97.80;;;;;;5072336;28;20401;-58
2021/04/23 03:55:43;;;;;;;4.63;3.33;;;-0.50;97.60;;;;;;5072235;28;20213;-58
2021/04/23 03:58:09;;;;;;;4.18;3.40;;;-0.60;97.50;;;;;;5072015;28;20175;-60
2021/04/23 04:00:49;;;;;;;3.58;3.28;;;-0.60;97.40;;;;;;5071886;28;20215;-61
2021/04/23 04:03:16;;;;;;;3.78;3.33;;;-0.70;97.50;;;;;;5072184;28;20682;-58
2021/04/23 04:05:43;;;;;;;5.13;3.80;;;-0.70;97.50;;;;;;5072192;28;20197;-58
2021/04/23 04:08:08;;;;;;;5.90;5.15;;;-0.70;97.80;;;;;;5071881;28;20169;-58
2021/04/23 04:10:36;;;;;;;5.87;3.83;;;-0.70;97.70;;;;;;5071810;28;20183;-58
2021/04/23 04:13:02;;;;;;;3.78;3.47;;;-0.70;97.70;;;;;;5072018;28;20171;-57
2021/04/23 04:15:28;;;;;;;5.53;3.42;;;-0.70;97.70;;;;;;5072143;28;20171;-59
2021/04/23 04:17:54;;;;;;;5.27;3.77;;;-0.70;97.80;;;;;;5071028;28;20782;-60
2021/04/23 04:20:22;;;;;;;4.97;4.33;;;-0.60;97.60;;;;;;5071685;28;20811;-58
2021/04/23 04:22:48;;;;;;;6.95;4.50;;;-0.70;97.40;;;;;;5071723;28;20188;-60
2021/04/23 04:25:19;;;;;;;5.63;4.53;;;-0.70;97.40;;;;;;5071880;28;20167;-59
2021/04/23 04:27:45;;;;;;;6.47;4.25;;;-0.80;97.50;;;;;;5071927;28;20541;-58
2021/04/23 04:30:11;;;;;;;5.00;3.73;;;-0.80;97.40;;;;;;5071671;28;20191;-58
2021/04/23 04:32:38;;;;;;;6.95;4.05;;;-0.80;97.30;;;;;;5071801;28;20212;-57
2021/04/23 04:35:05;;;;;;;5.95;3.75;;;-0.90;97.50;;;;;;5071788;28;20171;-61
2021/04/23 04:37:31;;;;;;;6.10;4.47;;;-0.90;97.70;;;;;;5071804;28;20163;-59
2021/04/23 04:39:57;;;;;;;6.40;3.80;;;-0.90;97.90;;;;;;5071294;28;20186;-58
2021/04/23 04:42:23;;;;;;;8.50;4.65;;;-0.90;97.90;;;;;;5071914;28;20215;-58
2021/04/23 04:44:49;;;;;;;5.23;3.10;;;-1.00;97.70;;;;;;5071731;28;20171;-58
2021/04/23 04:47:14;;;;;;;6.03;3.93;;;-1.00;97.70;;;;;;5071651;28;20409;-58
2021/04/23 04:49:40;;;;;;;10.00;5.23;;;-1.00;97.60;;;;;;5071170;28;20179;-61
2021/04/23 04:52:06;;;;;;;6.03;4.10;;;-1.00;97.70;;;;;;5071640;28;20186;-60
2021/04/23 04:54:32;;;;;;;7.03;3.90;;;-1.00;97.90;;;;;;5071497;28;20436;-57
2021/04/23 04:56:57;;;;;;;7.60;3.90;;;-1.00;97.80;;;;;;5071604;28;20167;-59
2021/04/23 04:59:23;;;;;;;10.77;4.70;;;-1.00;99.90;;;;;;5070971;28;20194;-59
2021/04/23 05:01:49;;;;;;;6.07;4.43;;;-1.00;98.20;;;;;;5071620;28;20288;-60
2021/04/23 05:04:14;;;;;;;6.13;4.57;;;-1.00;98.60;;;;;;5071522;28;20653;-61
2021/04/23 05:06:40;;;;;;;8.10;4.10;;;-0.90;99.00;;;;;;5071427;28;20159;-57
2021/04/23 05:09:06;;;;;;;10.50;5.27;;;-0.80;99.20;;;;;;5071046;28;20539;-58
2021/04/23 05:11:32;;;;;;;8.63;4.40;;;-0.80;99.30;;;;;;5071397;28;20193;-59
2021/04/23 05:13:58;;;;;;;7.27;4.80;;;-0.70;99.30;;;;;;5071468;28;20413;-59
2021/04/23 05:16:24;;;;;;;6.50;4.30;;;-0.60;99.10;;;;;;5071406;28;20428;-58
2021/04/23 05:18:50;;;;;;;8.40;6.30;;;-0.60;98.70;;;;;;5071038;28;20166;-58
2021/04/23 05:21:15;;;;;;;6.30;4.27;;;-0.60;98.80;;;;;;5071164;28;20480;-58
2021/04/23 05:23:41;;;;;;;8.07;5.40;;;-0.50;99.00;;;;;;5071223;28;20278;-62
2021/04/23 05:26:07;;;;;;;4.95;3.60;;;-0.50;99.30;;;;;;5071296;28;20155;-60
2021/04/23 05:28:33;;;;;;;8.07;5.03;;;-0.50;99.50;;;;;;5072920;28;20662;-57
2021/04/23 05:30:59;;;;;;;7.05;5.20;;;-0.50;99.60;;;;;;5074847;28;20185;-62
2021/04/23 05:33:25;;;;;;;9.93;6.10;;;-0.30;99.90;;;;;;5074997;28;20173;-57
2021/04/23 05:35:50;;;;;;;9.40;5.20;;;-0.20;99.90;;;;;;5074927;28;20279;-60
2021/04/23 05:38:16;;;;;;;9.00;5.53;;;-0.10;99.90;;;;;;5074355;28;20171;-61
2021/04/23 05:40:45;;;;;;;7.83;5.80;;;0.00;99.80;;;;;;5074790;28;20193;-62
2021/04/23 05:43:12;;;;;;;8.88;6.30;;;0.00;99.90;;;;;;5074572;28;20651;-61
2021/04/23 05:45:40;;;;;;;7.57;5.80;;;0.10;99.90;;;;;;5074810;28;20214;-58
2021/04/23 05:48:06;;;;;;;11.82;7.07;;;0.20;99.90;;;;;;5074439;28;20155;-61
2021/04/23 05:50:32;;;;;;;10.20;6.25;;;0.30;99.90;;;;;;5074317;28;20677;-58
2021/04/23 05:52:58;;;;;;;9.90;5.73;;;0.40;99.90;;;;;;5074535;28;20164;-61
2021/04/23 05:55:25;;;;;;;7.73;6.03;;;0.40;99.90;;;;;;5074793;28;20778;-58
2021/04/23 05:57:53;;;;;;;10.00;4.95;;;0.50;99.90;;;;;;5074459;28;20179;-59
2021/04/23 06:00:21;;;;;;;6.70;5.32;;;0.60;99.90;;;;;;5074075;28;20210;-60
2021/04/23 06:02:48;;;;;;;6.00;5.18;;;0.80;99.90;;;;;;5074307;28;20222;-61
2021/04/23 06:05:15;;;;;;;8.98;5.93;;;0.90;99.90;;;;;;5074342;28;20183;-57
2021/04/23 06:07:40;;;;;;;7.82;4.47;;;1.10;99.90;;;;;;5074397;28;20658;-62
2021/04/23 06:10:08;;;;;;;10.23;5.10;;;1.30;99.90;;;;;;5073832;28;20192;-58
2021/04/23 06:12:34;;;;;;;12.70;5.95;;;1.40;99.90;;;;;;5074270;28;20222;-58
2021/04/23 06:15:00;;;;;;;7.20;5.87;;;1.50;99.80;;;;;;5074224;28;20196;-60
2021/04/23 06:17:26;;;;;;;13.33;5.27;;;1.60;99.90;;;;;;5074195;28;20843;-60
2021/04/23 06:19:52;;;;;;;13.00;6.45;;;1.80;99.70;;;;;;5073389;28;20440;-59
2021/04/23 06:22:17;;;;;;;7.37;5.27;;;2.00;99.60;;;;;;5074243;28;20204;-59
2021/04/23 06:24:43;;;;;;;11.23;5.27;;;2.20;99.40;;;;;;5074000;28;20173;-62
2021/04/23 06:27:09;;;;;;;6.13;4.50;;;2.40;99.20;;;;;;5074045;28;20532;-58
2021/04/23 06:29:35;;;;;;;9.03;5.00;;;2.60;98.90;;;;;;5073424;28;20186;-60
2021/04/23 06:32:00;;;;;;;11.47;7.00;;;2.70;98.60;;;;;;5073947;28;20696;-60
2021/04/23 06:34:26;;;;;;;4.57;3.93;;;2.80;99.80;;;;;;5073770;28;20406;-59
2021/04/23 06:36:52;;;;;;;4.73;3.10;;;3.10;99.40;;;;;;5072518;28;20312;-60
2021/04/23 06:39:18;;;;;;;13.37;7.70;;;3.30;98.60;;;;;;5072379;28;20772;-62
2021/04/23 06:41:45;;;;;;;10.10;5.60;;;3.40;98.70;;;;;;5073668;28;20280;-62
2021/04/23 06:44:11;;;;;;;9.57;6.13;;;3.60;98.60;;;;;;5073602;28;20541;-60
2021/04/23 06:46:37;;;;;;;12.17;7.73;;;3.60;99.50;;;;;;5073574;28;20502;-58
2021/04/23 06:49:03;;;;;;;12.50;7.57;;;3.80;99.90;;;;;;5073085;28;20430;-59
2021/04/23 06:51:29;;;;;;;11.20;6.40;;;3.80;99.80;;;;;;5073442;28;20554;-60
2021/04/23 06:53:55;;;;;;;8.90;7.57;;;3.90;99.70;;;;;;5073672;28;20421;-60
2021/04/23 06:56:21;;;;;;;9.20;6.03;;;4.00;99.80;;;;;;5073479;28;20610;-62
2021/04/23 06:58:46;;;;;;;9.80;7.00;;;4.10;99.30;;;;;;5072854;28;20187;-61
2021/04/23 07:01:14;;;;;;;17.33;6.97;;;4.20;99.50;;;;;;5073348;28;20186;-63
2021/04/23 07:03:41;;;;;;;21.47;9.40;;;4.40;99.30;;;;;;5073051;28;20449;-60
2021/04/23 07:06:07;;;;;;;13.43;7.07;;;4.50;98.80;;;;;;5073261;28;20907;-62
2021/04/23 07:08:32;;;;;;;13.20;6.93;;;4.60;98.70;;;;;;5072765;28;20412;-63
2021/04/23 07:10:58;;;;;;;12.83;7.43;;;4.70;99.20;;;;;;5073155;28;20226;-60
2021/04/23 07:13:24;;;;;;;13.47;7.93;;;5.00;98.70;;;;;;5073034;28;20175;-63
2021/04/23 07:15:49;;;;;;;17.80;7.03;;;5.00;98.10;;;;;;5073035;28;20272;-62
2021/04/23 07:18:15;;;;;;;9.53;8.13;;;5.10;97.90;;;;;;5072316;28;20225;-63
2021/04/23 07:20:41;;;;;;;11.40;8.00;;;5.30;97.50;;;;;;5072877;28;20199;-62
2021/04/23 07:23:07;;;;;;;13.53;8.13;;;5.30;97.30;;;;;;5072801;28;20573;-60
2021/04/23 07:25:33;;;;;;;14.73;8.43;;;5.40;97.40;;;;;;5072960;28;20929;-60
2021/04/23 07:27:59;;;;;;;10.30;7.20;;;5.50;96.90;;;;;;5072699;28;20401;-65
2021/04/23 07:30:28;;;;;;;10.90;8.17;;;5.60;96.60;;;;;;5072433;28;20979;-59
2021/04/23 07:32:54;;;;;;;14.53;7.27;;;5.80;96.20;;;;;;5072672;28;20171;-63
2021/04/23 07:35:20;;;;;;;10.80;7.20;;;5.90;96.40;;;;;;5071481;28;20421;-63
2021/04/23 07:37:46;;;;;;;9.10;7.57;;;6.00;96.00;;;;;;5072490;28;20409;-64
2021/04/23 07:40:15;;;;;;;11.70;7.27;;;6.30;95.00;;;;;;5072172;28;20268;-63
2021/04/23 07:42:41;;;;;;;11.27;7.00;;;6.40;95.20;;;;;;5072479;28;20195;-62
2021/04/23 07:45:08;;;;;;;13.10;7.87;;;6.40;94.80;;;;;;5072264;28;20912;-63
2021/04/23 07:47:35;;;;;;;8.90;6.53;;;6.50;95.10;;;;;;5072451;28;20163;-63
2021/04/23 07:50:01;;;;;;;8.60;7.23;;;6.70;94.70;;;;;;5071937;28;20425;-62
2021/04/23 07:52:27;;;;;;;12.00;8.37;;;6.80;94.10;;;;;;5072266;28;20500;-61
2021/04/23 07:54:56;;;;;;;9.70;7.50;;;6.90;94.00;;;;;;5070283;28;20493;-60
2021/04/23 07:57:22;;;;;;;11.70;8.20;;;7.10;93.40;;;;;;5071179;28;20409;-59
2021/04/23 07:59:47;;;;;;;10.80;7.97;;;7.10;93.20;;;;;;5071629;28;20498;-62
2021/04/23 08:02:13;;;;;;;11.60;7.70;;;7.30;93.70;;;;;;5071724;28;20229;-61
2021/04/23 08:04:39;;;;;;;11.40;7.13;;;7.30;92.00;;;;;;5072162;28;20187;-61
2021/04/23 08:07:08;;;;;;;8.97;5.80;;;7.50;92.60;;;;;;5072004;28;20495;-62
2021/04/23 08:09:34;;;;;;;8.60;7.37;;;7.60;91.80;;;;;;5071678;28;20184;-63
2021/04/23 08:12:00;;;;;;;15.00;7.47;;;7.80;91.80;;;;;;5072162;28;20410;-62
2021/04/23 08:14:26;;;;;;;10.83;7.50;;;7.90;91.40;;;;;;5071796;28;20489;-61
2021/04/23 08:16:52;;;;;;;11.40;7.83;;;8.00;91.30;;;;;;5072194;28;20179;-63
2021/04/23 08:19:17;;;;;;;16.30;7.47;;;8.20;91.30;;;;;;5071475;28;20174;-62
2021/04/23 08:21:43;;;;;;;10.93;7.40;;;8.20;90.00;;;;;;5072080;28;20226;-63
2021/04/23 08:24:09;;;;;;;9.30;6.30;;;8.20;88.90;;;;;;5071322;28;20211;-62
2021/04/23 08:26:35;;;;;;;9.53;7.57;;;8.30;90.10;;;;;;5071397;28;20172;-62
2021/04/23 08:29:02;;;;;;;15.70;8.57;;;8.60;90.50;;;;;;5071179;28;20418;-63
2021/04/23 08:31:27;;;;;;;11.70;6.53;;;8.80;90.50;;;;;;5071623;28;20433;-64
2021/04/23 08:33:53;;;;;;;8.30;6.60;;;9.00;89.60;;;;;;5071867;28;20401;-63
2021/04/23 08:36:18;;;;;;;12.17;8.53;;;9.30;88.30;;;;;;5071735;28;20175;-63
2021/04/23 08:38:44;;;;;;;13.93;7.47;;;9.20;85.00;;;;;;5071500;28;20261;-63
2021/04/23 08:41:09;;;;;;;10.03;9.17;;;9.30;86.80;;;;;;5071627;28;20189;-63
2021/04/23 08:43:35;;;;;;;9.17;7.20;;;9.30;85.50;;;;;;5071606;28;20199;-63
2021/04/23 08:46:02;;;;;;;12.20;7.20;;;9.50;85.80;;;;;;5069754;28;20227;-63
2021/04/23 08:48:28;;;;;;;9.70;7.27;;;9.80;85.90;;;;;;5071399;28;20408;-63
2021/04/23 08:50:55;;;;;;;7.30;6.03;;;10.00;84.00;;;;;;5071562;28;20432;-64
2021/04/23 08:53:26;;;;;;;9.00;7.60;;;10.20;82.70;;;;;;5071718;28;20455;-64
2021/04/23 08:55:53;;;;;;;16.73;6.53;;;10.30;82.20;;;;;;5071606;28;20400;-63
2021/04/23 08:58:19;;;;;;;9.40;6.63;;;10.20;77.80;;;;;;5071098;28;20448;-62
2021/04/23 09:00:45;;;;;;;8.40;6.77;;;10.40;81.20;;;;;;5071350;28;20472;-64
2021/04/23 09:03:12;;;;;;;10.00;6.37;;;10.60;78.70;;;;;;5072926;28;20198;-63
2021/04/23 09:05:39;;;;;;;10.10;6.83;;;10.70;78.30;;;;;;5075136;28;20409;-62
2021/04/23 09:08:07;;;;;;;9.50;6.30;;;10.90;80.20;;;;;;5075242;28;20778;-64
2021/04/23 09:10:34;;;;;;;9.60;7.60;;;11.30;80.30;;;;;;5075127;28;20465;-62
2021/04/23 09:13:15;;;;;;;11.33;7.00;;;11.60;81.00;;;;;;5075263;28;20917;-64
2021/04/23 09:15:43;;;;;;;7.77;6.93;;;11.60;76.90;;;;;;5076552;28;20413;-64
2021/04/23 09:18:13;;;;;;;8.50;7.43;;;11.90;76.70;;;;;;5075520;28;20412;-63
2021/04/23 09:20:47;;;;;;;12.53;7.07;;;11.60;76.00;;;;;;5075781;28;20482;-64
2021/04/23 09:23:17;;;;;;;10.33;7.50;;;12.00;73.60;;;;;;5075601;28;20440;-65
2021/04/23 09:25:52;;;;;;;7.43;6.67;;;11.90;74.50;;;;;;5074808;28;21090;-65
2021/04/23 09:28:39;;;;;;;7.70;6.50;;;12.20;75.80;;;;;;5076461;28;20432;-65
2021/04/23 09:31:19;;;;;;;10.37;6.70;;;12.60;73.40;;;;;;5078014;28;20424;-65
2021/04/23 09:33:50;;;;;;;9.73;6.70;;;12.90;74.10;;;;;;5077634;28;20476;-65
2021/04/23 09:36:46;;;;;;;10.07;7.53;;;13.40;70.20;;;;;;5077231;28;20408;-65
2021/04/23 09:39:23;;;;;;;12.20;7.70;;;13.20;66.10;;;;;;5076540;28;20417;-64
2021/04/23 09:42:02;;;;;;;9.37;6.10;;;12.80;67.50;;;;;;5076556;28;20405;-65
2021/04/23 09:44:32;;;;;;;11.00;6.87;;;13.20;69.60;;;;;;5079002;28;20507;-65
2021/04/23 09:47:04;;;;;;;6.90;6.20;;;13.50;72.50;;;;;;5078496;28;20474;-65
2021/04/23 09:49:30;;;;;;;7.27;6.57;;;13.70;69.60;;;;;;5080283;28;20480;-65
2021/04/23 09:51:56;;;;;;;6.93;5.47;;;14.10;69.40;;;;;;5080962;28;20401;-65
2021/04/23 09:54:24;;;;;;;10.80;5.87;;;14.30;66.00;;;;;;5080460;28;20930;-65
2021/04/23 09:56:51;;;;;;;7.70;7.00;;;14.40;63.10;;;;;;5081004;28;20753;-66
2021/04/23 09:59:25;;;;;;;6.50;5.90;;;14.80;61.90;;;;;;5079730;28;20422;-65
2021/04/23 10:02:03;;;;;;;9.30;6.63;;;14.90;66.50;;;;;;5080878;28;20508;-65
2021/04/23 10:04:31;;;;;;;5.40;4.90;;;15.10;62.00;;;;;;5081233;28;20412;-65
2021/04/23 10:07:22;;;;;;;5.83;4.90;;;15.40;59.50;;;;;;5080738;28;20398;-65
2021/04/23 10:10:06;;;;;;;7.90;5.97;;;15.50;61.40;;;;;;5080561;28;20444;-65
2021/04/23 10:12:33;;;;;;;8.30;5.73;;;15.90;59.30;;;;;;5080995;28;20401;-65
2021/04/23 10:15:01;;;;;;;5.47;4.83;;;15.90;62.80;;;;;;5077248;28;20417;-66
2021/04/23 10:17:27;;;;;;;6.13;5.30;;;16.50;62.10;;;;;;5078921;28;21098;-65
2021/04/23 10:19:54;;;;;;;6.90;5.13;;;16.80;57.00;;;;;;5076993;28;20563;-65
2021/04/23 10:22:21;;;;;;;8.40;5.60;;;17.30;59.90;;;;;;5076130;28;20449;-65
2021/04/23 10:24:49;;;;;;;8.77;5.47;;;17.10;56.10;;;;;;5076135;28;20394;-65
2021/04/23 10:27:16;;;;;;;8.70;4.90;;;17.00;55.80;;;;;;5076186;28;20898;-65
2021/04/23 10:29:44;;;;;;;5.07;4.67;;;17.00;57.70;;;;;;5075150;28;20413;-65
2021/04/23 10:32:10;;;;;;;5.70;5.00;;;17.30;57.20;;;;;;5075424;28;20528;-65
2021/04/23 10:34:37;;;;;;;9.43;7.50;;;17.50;58.80;;;;;;5075025;28;20402;-65
2021/04/23 10:37:03;;;;;;;6.97;5.20;;;17.60;54.90;;;;;;5074890;28;20436;-65
2021/04/23 10:39:33;;;;;;;6.37;5.77;;;18.10;57.70;;;;;;5074488;28;20471;-66
2021/04/23 10:41:59;;;;;;;6.10;5.50;;;18.40;54.90;;;;;;5075167;28;20408;-66
2021/04/23 10:45:01;;;;;;;6.53;5.70;;;18.70;55.10;;;;;;5074810;28;20488;-65
2021/04/23 10:47:31;;;;;;;5.07;4.57;;;18.50;53.60;;;;;;5075342;28;20163;-66
2021/04/23 10:50:18;;;;;;;5.20;4.70;;;18.90;53.70;;;;;;5074646;28;20508;-66
2021/04/23 10:52:58;;;;;;;5.43;4.93;;;18.90;52.20;;;;;;5074913;28;20398;-65
2021/04/23 10:55:36;;;;;;;7.23;6.63;;;19.20;55.50;;;;;;5075257;28;20401;-66
2021/04/23 10:58:02;;;;;;;7.20;6.50;;;19.20;54.80;;;;;;5075115;28;20397;-65
2021/04/23 11:00:32;;;;;;;9.10;6.90;;;19.60;56.50;;;;;;5075084;28;20460;-65
2021/04/23 11:03:23;;;;;;;8.17;6.30;;;19.60;55.60;;;;;;5075229;28;20441;-66
2021/04/23 11:06:26;;;;;;;7.50;6.90;;;19.50;53.40;;;;;;5075213;28;20433;-66
2021/04/23 11:09:16;;;;;;;9.53;7.87;;;19.60;54.40;;;;;;5075209;28;20394;-66
2021/04/23 11:11:43;;;;;;;11.00;8.90;;;19.80;55.10;;;;;;5074796;28;20439;-66
2021/04/23 11:14:28;;;;;;;8.60;7.30;;;20.20;59.00;;;;;;5075506;28;20898;-65
2021/04/23 11:17:15;;;;;;;8.20;7.30;;;20.20;55.40;;;;;;5075182;28;20402;-66
2021/04/23 11:19:41;;;;;;;7.57;6.87;;;20.10;55.50;;;;;;5074743;28;20941;-66
2021/04/23 11:22:12;;;;;;;7.83;6.97;;;20.20;56.70;;;;;;5075075;28;20424;-66
2021/04/23 11:24:39;;;;;;;8.30;7.33;;;20.40;53.90;;;;;;5075138;28;20406;-66
2021/04/23 11:27:07;;;;;;;6.37;5.77;;;20.70;51.80;;;;;;5075186;28;20413;-66
2021/04/23 11:29:36;;;;;;;10.97;8.30;;;20.70;54.20;;;;;;5075059;28;20496;-66
2021/04/23 11:32:22;;;;;;;12.57;7.33;;;20.70;53.40;;;;;;5075109;28;20394;-66
2021/04/23 11:34:59;;;;;;;8.90;5.73;;;20.70;53.60;;;;;;5075298;28;20401;-66
2021/04/23 11:37:48;;;;;;;8.37;7.53;;;21.00;53.20;;;;;;5075106;28;20390;-66
2021/04/23 11:40:19;;;;;;;7.73;6.93;;;21.50;54.30;;;;;;5073915;28;20437;-66
2021/04/23 11:42:50;;;;;;;7.10;6.50;;;21.40;54.70;;;;;;5074332;28;20464;-66
2021/04/23 11:45:20;;;;;;;7.37;6.67;;;21.50;53.40;;;;;;5075609;28;20409;-66
2021/04/23 11:47:47;;;;;;;6.80;6.10;;;21.80;54.10;;;;;;5074389;28;20400;-66
2021/04/23 11:50:15;;;;;;;6.27;5.67;;;21.30;49.30;;;;;;5074117;28;20425;-66
2021/04/23 11:52:44;;;;;;;7.30;6.60;;;21.30;53.20;;;;;;5074029;28;20408;-66
2021/04/23 11:55:20;;;;;;;8.03;6.37;;;21.60;53.70;;;;;;5073594;28;20414;-66
2021/04/23 11:57:49;;;;;;;8.00;6.27;;;22.10;54.00;;;;;;5072981;28;20406;-66
2021/04/23 12:00:24;;;;;;;11.10;6.07;;;22.20;52.30;;;;;;5072886;28;20528;-66
2021/04/23 12:02:51;;;;;;;8.83;5.97;;;22.20;50.60;;;;;;5073869;28;20563;-66
2021/04/23 12:05:26;;;;;;;7.43;5.93;;;22.40;50.80;;;;;;5072707;28;20442;-66
2021/04/23 12:07:54;;;;;;;6.87;6.10;;;22.30;50.70;;;;;;5072743;28;20902;-66
2021/04/23 12:10:21;;;;;;;6.90;6.20;;;22.50;54.70;;;;;;5072190;28;20421;-66
2021/04/23 12:12:47;;;;;;;7.07;6.37;;;23.10;51.30;;;;;;5072725;28;20508;-66
2021/04/23 12:15:24;;;;;;;7.20;4.90;;;23.10;49.50;;;;;;5072665;28;20500;-66
2021/04/23 12:17:50;;;;;;;6.30;5.53;;;22.90;49.80;;;;;;5072803;28;20170;-66
2021/04/23 12:20:19;;;;;;;10.47;6.07;;;23.20;51.40;;;;;;5071890;28;20566;-66
2021/04/23 12:22:46;;;;;;;8.80;5.97;;;23.10;50.50;;;;;;5072756;28;20205;-67
2021/04/23 12:25:17;;;;;;;5.57;5.00;;;23.10;48.00;;;;;;5072325;28;20412;-66
2021/04/23 12:27:43;;;;;;;6.50;5.77;;;23.40;49.20;;;;;;5072222;28;20834;-66
2021/04/23 12:30:09;;;;;;;7.50;6.20;;;23.40;48.20;;;;;;5071677;28;20429;-66
2021/04/23 12:32:35;;;;;;;5.50;4.87;;;23.30;47.10;;;;;;5071905;28;20276;-66
2021/04/23 12:35:00;;;;;;;5.80;5.20;;;23.20;45.70;;;;;;5071933;28;20528;-67
2021/04/23 12:37:26;;;;;;;7.70;5.17;;;23.20;47.00;;;;;;5071103;28;20174;-66
2021/04/23 12:39:51;;;;;;;6.23;5.73;;;23.50;49.00;;;;;;5072087;28;20198;-67
2021/04/23 12:42:17;;;;;;;8.33;7.10;;;23.60;45.00;;;;;;5072956;28;20175;-67
2021/04/23 12:44:42;;;;;;;5.73;5.23;;;23.80;47.80;;;;;;5072641;28;20171;-67
2021/04/23 12:47:13;;;;;;;7.87;5.70;;;23.70;47.40;;;;;;5072533;28;20232;-67
2021/04/23 12:49:41;;;;;;;10.70;6.20;;;23.90;46.90;;;;;;5072244;28;20934;-67
2021/04/23 12:52:11;;;;;;;5.60;5.10;;;24.00;48.00;;;;;;5072580;28;20815;-67
2021/04/23 12:54:51;;;;;;;8.83;5.80;;;24.10;45.10;;;;;;5072455;28;20414;-67
2021/04/23 12:57:25;;;;;;;6.67;6.03;;;24.00;45.50;;;;;;5072769;28;20439;-67